Time,TemperatureF,DewpointF,PressureIn,WindDirection,WindDirectionDegrees,WindSpeedMPH,WindSpeedGustMPH,Humidity,HourlyPrecipIn,Conditions,Clouds,dailyrainin,SoftwareType,DateUTC
2013-04-07 00:00:00,41.2,24.9,30.24,SE,139,3.0,6.0,52,0.00,,CLR,0.00,VWS V14.01,2013-04-07 04:00:00,
2013-04-07 00:01:00,41.2,24.9,30.24,SE,139,3.0,3.0,52,0.00,,CLR,0.00,VWS V14.01,2013-04-07 04:01:00,
2013-04-07 00:06:00,41.1,25.3,30.24,SE,136,3.0,6.0,53,0.00,,CLR,0.00,VWS V14.01,2013-04-07 04:06:00,
2013-04-07 00:12:00,40.9,25.5,30.24,SSE,147,3.0,4.0,54,0.00,,CLR,0.00,VWS V14.01,2013-04-07 04:12:00,
2013-04-07 00:17:00,40.5,25.6,30.24,SE,138,6.0,7.0,55,0.00,,CLR,0.00,VWS V14.01,2013-04-07 04:17:00,
2013-04-07 00:22:00,40.9,25.5,30.25,SE,128,6.0,8.0,54,0.00,,CLR,0.00,VWS V14.01,2013-04-07 04:22:00,
2013-04-07 00:27:00,40.9,26.0,30.25,SSE,168,3.0,5.0,55,0.00,,CLR,0.00,VWS V14.01,2013-04-07 04:27:00,
2013-04-07 00:32:00,41.0,26.1,30.25,SE,138,4.0,8.0,55,0.00,,CLR,0.00,VWS V14.01,2013-04-07 04:32:00,
2013-04-07 00:37:00,41.1,26.2,30.24,SE,145,8.0,12.0,55,0.00,,CLR,0.00,VWS V14.01,2013-04-07 04:37:00,
2013-04-07 00:42:00,41.2,26.3,30.24,SSE,155,6.0,11.0,55,0.00,,CLR,0.00,VWS V14.01,2013-04-07 04:42:00,
2013-04-07 00:47:00,41.1,26.2,30.24,ESE,123,10.0,10.0,55,0.00,,CLR,0.00,VWS V14.01,2013-04-07 04:47:00,
2013-04-07 00:52:00,41.2,26.3,30.24,SE,138,8.0,12.0,55,0.00,,CLR,0.00,VWS V14.01,2013-04-07 04:52:00,
2013-04-07 00:58:00,41.1,27.0,30.24,SSE,163,8.0,9.0,57,0.00,,CLR,0.00,VWS V14.01,2013-04-07 04:58:00,
2013-04-07 01:03:00,41.0,27.4,30.24,South,169,6.0,9.0,58,0.00,,CLR,0.00,VWS V14.01,2013-04-07 05:03:00,
2013-04-07 01:09:00,41.0,27.8,30.24,SSE,153,7.0,10.0,59,0.00,,CLR,0.00,VWS V14.01,2013-04-07 05:09:00,
2013-04-07 01:14:00,40.9,27.7,30.23,SE,140,5.0,10.0,59,0.00,,CLR,0.00,VWS V14.01,2013-04-07 05:14:00,
2013-04-07 01:19:00,40.9,27.7,30.24,SE,145,5.0,8.0,59,0.00,,CLR,0.00,VWS V14.01,2013-04-07 05:19:00,
2013-04-07 01:24:00,40.8,28.0,30.23,SE,144,6.0,11.0,60,0.00,,CLR,0.00,VWS V14.01,2013-04-07 05:24:00,
2013-04-07 01:29:00,40.7,28.3,30.23,SE,136,6.0,13.0,61,0.00,,CLR,0.00,VWS V14.01,2013-04-07 05:29:00,
2013-04-07 01:35:00,40.5,28.5,30.23,SSE,155,6.0,11.0,62,0.00,,CLR,0.00,VWS V14.01,2013-04-07 05:35:00,
2013-04-07 01:40:00,40.4,28.8,30.23,SE,131,4.0,8.0,63,0.00,,CLR,0.00,VWS V14.01,2013-04-07 05:40:00,
2013-04-07 01:45:00,40.2,28.6,30.23,SSE,150,3.0,11.0,63,0.00,,CLR,0.00,VWS V14.01,2013-04-07 05:45:00,
2013-04-07 01:50:00,40.1,29.3,30.23,SE,127,14.0,14.0,65,0.00,,CLR,0.00,VWS V14.01,2013-04-07 05:50:00,
2013-04-07 01:55:00,40.1,29.7,30.23,SSE,158,6.0,9.0,66,0.00,,CLR,0.00,VWS V14.01,2013-04-07 05:55:00,
2013-04-07 02:00:00,40.0,29.6,30.22,SE,145,10.0,13.0,66,0.00,,CLR,0.00,VWS V14.01,2013-04-07 06:00:00,
2013-04-07 02:05:00,39.9,30.2,30.22,SE,145,11.0,13.0,68,0.00,,CLR,0.00,VWS V14.01,2013-04-07 06:05:00,
2013-04-07 02:10:00,39.8,30.5,30.22,SSE,158,7.0,11.0,69,0.00,,CLR,0.00,VWS V14.01,2013-04-07 06:10:00,
2013-04-07 02:15:00,39.7,30.4,30.22,SE,129,12.0,12.0,69,0.00,,CLR,0.00,VWS V14.01,2013-04-07 06:15:00,
2013-04-07 02:20:00,39.7,30.7,30.22,SE,134,12.0,12.0,70,0.00,,CLR,0.00,VWS V14.01,2013-04-07 06:20:00,
2013-04-07 02:25:00,39.6,31.0,30.22,SE,145,10.0,12.0,71,0.00,,CLR,0.00,VWS V14.01,2013-04-07 06:25:00,
2013-04-07 02:30:00,39.6,31.3,30.22,SE,134,9.0,9.0,72,0.00,,CLR,0.00,VWS V14.01,2013-04-07 06:30:00,
2013-04-07 02:35:00,39.6,31.7,30.22,SE,140,10.0,11.0,73,0.00,,CLR,0.00,VWS V14.01,2013-04-07 06:35:00,
2013-04-07 02:40:00,39.6,32.0,30.22,SE,132,11.0,12.0,74,0.00,,CLR,0.00,VWS V14.01,2013-04-07 06:40:00,
2013-04-07 02:45:00,39.5,32.2,30.21,SSE,158,8.0,13.0,75,0.00,,CLR,0.00,VWS V14.01,2013-04-07 06:45:00,
2013-04-07 02:50:00,39.4,32.5,30.21,SE,127,12.0,14.0,76,0.00,,CLR,0.00,VWS V14.01,2013-04-07 06:50:00,
2013-04-07 02:56:00,39.3,32.4,30.21,SE,141,13.0,13.0,76,0.00,,CLR,0.00,VWS V14.01,2013-04-07 06:56:00,
2013-04-07 03:02:00,39.2,32.6,30.21,SE,125,10.0,10.0,77,0.00,,CLR,0.00,VWS V14.01,2013-04-07 07:02:00,
2013-04-07 03:07:00,39.1,32.5,30.21,SSE,149,8.0,11.0,77,0.00,,CLR,0.00,VWS V14.01,2013-04-07 07:07:00,
2013-04-07 03:12:00,39.1,32.5,30.22,SSE,150,6.0,11.0,77,0.00,,CLR,0.00,VWS V14.01,2013-04-07 07:12:00,
2013-04-07 03:17:00,38.9,32.6,30.21,SE,127,13.0,13.0,78,0.00,,CLR,0.00,VWS V14.01,2013-04-07 07:17:00,
2013-04-07 03:22:00,38.9,32.6,30.21,SSE,159,6.0,9.0,78,0.00,,CLR,0.00,VWS V14.01,2013-04-07 07:22:00,
2013-04-07 03:27:00,38.7,32.4,30.21,SE,132,10.0,13.0,78,0.00,,CLR,0.00,VWS V14.01,2013-04-07 07:27:00,
2013-04-07 03:32:00,38.7,32.4,30.21,SSE,155,7.0,9.0,78,0.00,,CLR,0.00,VWS V14.01,2013-04-07 07:32:00,
2013-04-07 03:37:00,38.5,32.6,30.21,SE,125,8.0,8.0,79,0.00,,CLR,0.00,VWS V14.01,2013-04-07 07:37:00,
2013-04-07 03:42:00,38.4,32.5,30.21,SE,124,6.0,9.0,79,0.00,,CLR,0.00,VWS V14.01,2013-04-07 07:42:00,
2013-04-07 03:47:00,38.3,32.4,30.21,SE,143,6.0,9.0,79,0.00,,CLR,0.00,VWS V14.01,2013-04-07 07:47:00,
2013-04-07 03:52:00,38.4,32.5,30.21,SSE,163,6.0,8.0,79,0.00,,CLR,0.00,VWS V14.01,2013-04-07 07:52:00,
2013-04-07 03:57:00,38.3,32.4,30.22,SE,135,3.0,7.0,79,0.00,,CLR,0.00,VWS V14.01,2013-04-07 07:57:00,
2013-04-07 04:02:00,38.3,32.4,30.22,SSE,159,6.0,7.0,79,0.00,,CLR,0.00,VWS V14.01,2013-04-07 08:02:00,
2013-04-07 04:08:00,38.3,32.4,30.21,SE,136,7.0,7.0,79,0.00,,CLR,0.00,VWS V14.01,2013-04-07 08:08:00,
2013-04-07 04:13:00,38.4,32.5,30.21,SSE,156,5.0,8.0,79,0.00,,CLR,0.00,VWS V14.01,2013-04-07 08:13:00,
2013-04-07 04:18:00,38.5,32.2,30.21,SE,143,11.0,11.0,78,0.00,,CLR,0.00,VWS V14.01,2013-04-07 08:18:00,
2013-04-07 04:23:00,38.5,32.2,30.21,SSE,155,6.0,10.0,78,0.00,,CLR,0.00,VWS V14.01,2013-04-07 08:23:00,
2013-04-07 04:28:00,38.5,31.9,30.21,SSE,149,8.0,12.0,77,0.00,,CLR,0.00,VWS V14.01,2013-04-07 08:28:00,
2013-04-07 04:33:00,38.6,31.7,30.21,South,170,11.0,11.0,76,0.00,,CLR,0.00,VWS V14.01,2013-04-07 08:33:00,
2013-04-07 04:38:00,38.7,31.5,30.21,SSE,158,9.0,13.0,75,0.00,,CLR,0.00,VWS V14.01,2013-04-07 08:38:00,
2013-04-07 04:43:00,38.7,31.1,30.21,SSE,155,8.0,13.0,74,0.00,,CLR,0.00,VWS V14.01,2013-04-07 08:43:00,
2013-04-07 04:48:00,38.7,31.1,30.21,SSE,150,9.0,11.0,74,0.00,,CLR,0.00,VWS V14.01,2013-04-07 08:48:00,
2013-04-07 04:53:00,38.7,30.8,30.21,SSE,163,9.0,10.0,73,0.00,,CLR,0.00,VWS V14.01,2013-04-07 08:53:00,
2013-04-07 04:59:00,38.7,30.8,30.21,SSE,167,9.0,11.0,73,0.00,,CLR,0.00,VWS V14.01,2013-04-07 08:59:00,
2013-04-07 05:04:00,38.7,30.8,30.21,SE,143,10.0,12.0,73,0.00,,SCT120,0.00,VWS V14.01,2013-04-07 09:04:00,
2013-04-07 05:09:00,38.8,30.6,30.21,SSE,160,8.0,11.0,72,0.00,,SCT120,0.00,VWS V14.01,2013-04-07 09:09:00,
2013-04-07 05:14:00,38.8,30.6,30.20,SSE,150,6.0,13.0,72,0.00,,SCT120,0.00,VWS V14.01,2013-04-07 09:14:00,
2013-04-07 05:19:00,38.7,30.1,30.20,SSE,155,6.0,12.0,71,0.00,,SCT120,0.00,VWS V14.01,2013-04-07 09:19:00,
2013-04-07 05:25:00,38.7,29.8,30.20,SSE,154,8.0,13.0,70,0.00,,SCT120,0.00,VWS V14.01,2013-04-07 09:25:00,
2013-04-07 05:30:00,38.8,29.5,30.20,SE,146,7.0,14.0,69,0.00,,SCT120,0.00,VWS V14.01,2013-04-07 09:30:00,
2013-04-07 05:35:00,38.7,29.1,30.20,SE,141,5.0,12.0,68,0.00,,SCT120,0.00,VWS V14.01,2013-04-07 09:35:00,
2013-04-07 05:40:00,38.7,28.7,30.20,SE,145,7.0,11.0,67,0.00,,SCT120,0.00,VWS V14.01,2013-04-07 09:40:00,
2013-04-07 05:45:00,38.6,28.6,30.20,SE,146,7.0,7.0,67,0.00,,SCT120,0.00,VWS V14.01,2013-04-07 09:45:00,
2013-04-07 05:50:00,38.7,28.0,30.20,SE,146,9.0,11.0,65,0.00,,SCT120,0.00,VWS V14.01,2013-04-07 09:50:00,
2013-04-07 05:55:00,38.7,28.0,30.19,SE,139,13.0,15.0,65,0.00,,SCT120,0.00,VWS V14.01,2013-04-07 09:55:00,
2013-04-07 06:00:00,38.8,27.3,30.18,SE,146,10.0,13.0,63,0.00,,SCT100,0.00,VWS V14.01,2013-04-07 10:00:00,
2013-04-07 06:05:00,38.8,26.9,30.19,SSE,166,4.0,10.0,62,0.00,,SCT100,0.00,VWS V14.01,2013-04-07 10:05:00,
2013-04-07 06:10:00,38.8,26.5,30.20,SSW,203,0.0,4.0,61,0.00,,SCT100,0.00,VWS V14.01,2013-04-07 10:10:00,
2013-04-07 06:15:00,38.7,26.4,30.20,SE,139,6.0,6.0,61,0.00,,SCT100,0.00,VWS V14.01,2013-04-07 10:15:00,
2013-04-07 06:20:00,38.4,26.1,30.20,SSE,159,5.0,6.0,61,0.00,,SCT100,0.00,VWS V14.01,2013-04-07 10:20:00,
2013-04-07 06:25:00,38.2,26.0,30.20,SSE,153,5.0,7.0,61,0.00,,SCT100,0.00,VWS V14.01,2013-04-07 10:25:00,
2013-04-07 06:31:00,38.1,25.9,30.20,SE,145,7.0,9.0,61,0.00,,SCT100,0.00,VWS V14.01,2013-04-07 10:31:00,
2013-04-07 06:36:00,38.0,25.8,30.21,SSE,153,3.0,7.0,61,0.00,,SCT100,0.00,VWS V14.01,2013-04-07 10:36:00,
2013-04-07 06:41:00,37.4,25.2,30.21,SSE,159,7.0,7.0,61,0.00,,SCT100,0.00,VWS V14.01,2013-04-07 10:41:00,
2013-04-07 06:46:00,37.4,25.2,30.21,SSE,159,7.0,7.0,61,0.00,,SCT100,0.00,VWS V14.01,2013-04-07 10:46:00,
2013-04-07 06:52:00,37.4,25.2,30.21,SSE,159,7.0,7.0,61,0.00,,SCT100,0.00,VWS V14.01,2013-04-07 10:52:00,
2013-04-07 06:57:00,37.4,25.2,30.21,SSE,159,7.0,7.0,61,0.00,,SCT100,0.00,VWS V14.01,2013-04-07 10:57:00,
2013-04-07 07:02:00,37.4,25.2,30.21,SSE,159,7.0,7.0,61,0.00,,CLR,0.00,VWS V14.01,2013-04-07 11:02:00,
2013-04-07 07:07:00,37.4,25.2,30.21,SSE,159,7.0,7.0,61,0.00,,CLR,0.00,VWS V14.01,2013-04-07 11:07:00,
2013-04-07 07:12:00,37.4,25.2,30.21,SSE,159,7.0,7.0,61,0.00,,CLR,0.00,VWS V14.01,2013-04-07 11:12:00,
2013-04-07 07:17:00,37.4,25.2,30.21,SSE,159,7.0,7.0,61,0.00,,CLR,0.00,VWS V14.01,2013-04-07 11:17:00,
2013-04-07 07:23:00,37.4,25.2,30.20,SSE,159,7.0,7.0,61,0.00,,CLR,0.00,VWS V14.01,2013-04-07 11:23:00,
2013-04-07 07:28:00,37.4,25.2,30.21,SSE,159,7.0,7.0,61,0.00,,CLR,0.00,VWS V14.01,2013-04-07 11:28:00,
2013-04-07 07:33:00,37.4,25.2,30.20,SSE,159,7.0,7.0,61,0.00,,CLR,0.00,VWS V14.01,2013-04-07 11:33:00,
2013-04-07 07:38:00,38.5,30.3,30.21,SE,146,5.0,10.0,72,0.00,,CLR,0.00,VWS V14.01,2013-04-07 11:38:00,
2013-04-07 07:43:00,38.7,30.8,30.21,SSE,153,7.0,10.0,73,0.00,,CLR,0.00,VWS V14.01,2013-04-07 11:43:00,
2013-04-07 07:48:00,38.8,31.2,30.21,SSE,150,8.0,12.0,74,0.00,,CLR,0.00,VWS V14.01,2013-04-07 11:48:00,
2013-04-07 07:53:00,38.7,31.8,30.21,SE,134,14.0,14.0,76,0.00,,CLR,0.00,VWS V14.01,2013-04-07 11:53:00,
2013-04-07 07:58:00,38.9,32.3,30.20,SSE,162,8.0,12.0,77,0.00,,CLR,0.00,VWS V14.01,2013-04-07 11:58:00,
2013-04-07 08:04:00,39.0,33.0,30.20,SSE,158,9.0,13.0,79,0.00,,CLR,0.00,VWS V14.01,2013-04-07 12:04:00,
2013-04-07 08:09:00,39.3,33.7,30.20,SSE,152,8.0,14.0,80,0.00,,CLR,0.00,VWS V14.01,2013-04-07 12:09:00,
2013-04-07 08:14:00,39.5,33.8,30.20,SSE,152,8.0,16.0,80,0.00,,CLR,0.00,VWS V14.01,2013-04-07 12:14:00,
2013-04-07 08:19:00,39.7,34.4,30.20,SE,142,9.0,15.0,81,0.00,,CLR,0.00,VWS V14.01,2013-04-07 12:19:00,
2013-04-07 08:24:00,40.1,35.1,30.20,SSE,147,7.0,14.0,82,0.00,,CLR,0.00,VWS V14.01,2013-04-07 12:24:00,
2013-04-07 08:29:00,40.5,35.1,30.19,South,174,7.0,12.0,81,0.00,,CLR,0.00,VWS V14.01,2013-04-07 12:29:00,
2013-04-07 08:34:00,40.8,35.7,30.19,SE,145,14.0,15.0,82,0.00,,CLR,0.00,VWS V14.01,2013-04-07 12:34:00,
2013-04-07 08:39:00,41.1,35.7,30.19,ESE,118,8.0,13.0,81,0.00,,CLR,0.00,VWS V14.01,2013-04-07 12:39:00,
2013-04-07 08:45:00,41.4,36.0,30.19,SSE,153,10.0,10.0,81,0.00,,CLR,0.00,VWS V14.01,2013-04-07 12:45:00,
2013-04-07 08:50:00,41.9,36.5,30.19,SE,139,7.0,11.0,81,0.00,,CLR,0.00,VWS V14.01,2013-04-07 12:50:00,
2013-04-07 08:55:00,42.3,36.6,30.18,SSE,168,10.0,10.0,80,0.00,,CLR,0.00,VWS V14.01,2013-04-07 12:55:00,
2013-04-07 09:00:00,42.5,36.5,30.18,SE,143,11.0,14.0,79,0.00,,CLR,0.00,VWS V14.01,2013-04-07 13:00:00,
2013-04-07 09:05:00,42.8,37.1,30.18,SE,146,8.0,11.0,80,0.00,,CLR,0.00,VWS V14.01,2013-04-07 13:05:00,
2013-04-07 09:10:00,43.3,37.2,30.18,SE,136,11.0,14.0,79,0.00,,CLR,0.00,VWS V14.01,2013-04-07 13:10:00,
2013-04-07 09:15:00,43.8,35.7,30.17,SSE,151,8.0,9.0,73,0.00,,CLR,0.00,VWS V14.01,2013-04-07 13:15:00,
2013-04-07 09:20:00,44.5,36.4,30.17,SSE,162,6.0,6.0,73,0.00,,CLR,0.00,VWS V14.01,2013-04-07 13:20:00,
2013-04-07 09:25:00,44.7,35.5,30.17,SW,215,8.0,12.0,70,0.00,,CLR,0.00,VWS V14.01,2013-04-07 13:25:00,
2013-04-07 09:30:00,45.1,35.2,30.16,South,174,15.0,16.0,68,0.00,,CLR,0.00,VWS V14.01,2013-04-07 13:30:00,
2013-04-07 09:35:00,45.1,35.5,30.16,SSW,212,4.0,11.0,69,0.00,,CLR,0.00,VWS V14.01,2013-04-07 13:35:00,
2013-04-07 09:40:00,45.5,36.3,30.16,SSE,150,10.0,12.0,70,0.00,,CLR,0.00,VWS V14.01,2013-04-07 13:40:00,
2013-04-07 09:45:00,46.0,36.0,30.16,SSE,154,14.0,15.0,68,0.00,,CLR,0.00,VWS V14.01,2013-04-07 13:45:00,
2013-04-07 09:50:00,45.9,36.0,30.16,SSE,160,11.0,14.0,68,0.00,,CLR,0.00,VWS V14.01,2013-04-07 13:50:00,
2013-04-07 09:55:00,46.4,36.8,30.16,South,179,7.0,12.0,69,0.00,,CLR,0.00,VWS V14.01,2013-04-07 13:55:00,
2013-04-07 10:00:00,46.3,36.0,30.16,SSW,194,5.0,17.0,67,0.00,,CLR,0.00,VWS V14.01,2013-04-07 14:00:00,
2013-04-07 10:06:00,46.7,37.5,30.16,SSE,156,14.0,14.0,70,0.00,,CLR,0.00,VWS V14.01,2013-04-07 14:06:00,
2013-04-07 10:11:00,46.6,37.0,30.15,SSE,151,15.0,16.0,69,0.00,,CLR,0.00,VWS V14.01,2013-04-07 14:11:00,
2013-04-07 10:16:00,46.9,36.9,30.15,SSE,148,6.0,10.0,68,0.00,,CLR,0.00,VWS V14.01,2013-04-07 14:16:00,
2013-04-07 10:21:00,47.0,36.6,30.15,ESE,116,10.0,20.0,67,0.00,,CLR,0.00,VWS V14.01,2013-04-07 14:21:00,
2013-04-07 10:26:00,47.3,37.3,30.15,SE,128,10.0,16.0,68,0.00,,CLR,0.00,VWS V14.01,2013-04-07 14:26:00,
2013-04-07 10:31:00,47.6,37.2,30.15,SE,127,7.0,10.0,67,0.00,,CLR,0.00,VWS V14.01,2013-04-07 14:31:00,
2013-04-07 10:36:00,47.9,37.1,30.15,SSE,166,11.0,20.0,66,0.00,,CLR,0.00,VWS V14.01,2013-04-07 14:36:00,
2013-04-07 10:42:00,48.1,37.7,30.14,SSE,150,15.0,16.0,67,0.00,,CLR,0.00,VWS V14.01,2013-04-07 14:42:00,
2013-04-07 10:47:00,48.4,37.6,30.14,SE,134,15.0,19.0,66,0.00,,CLR,0.00,VWS V14.01,2013-04-07 14:47:00,
2013-04-07 10:52:00,48.9,38.1,30.14,SE,146,13.0,17.0,66,0.00,,CLR,0.00,VWS V14.01,2013-04-07 14:52:00,
2013-04-07 10:57:00,49.3,38.0,30.14,South,186,9.0,12.0,65,0.00,,CLR,0.00,VWS V14.01,2013-04-07 14:57:00,
2013-04-07 11:02:00,49.9,37.8,30.13,SE,145,11.0,18.0,63,0.00,,CLR,0.00,VWS V14.01,2013-04-07 15:02:00,
2013-04-07 11:07:00,50.3,37.4,30.12,ESE,123,11.0,21.0,61,0.00,,CLR,0.00,VWS V14.01,2013-04-07 15:07:00,
2013-04-07 11:12:00,50.5,38.0,30.12,SSE,148,10.0,10.0,62,0.00,,CLR,0.00,VWS V14.01,2013-04-07 15:12:00,
2013-04-07 11:17:00,51.1,38.5,30.12,SE,144,9.0,15.0,62,0.00,,CLR,0.00,VWS V14.01,2013-04-07 15:17:00,
2013-04-07 11:22:00,51.4,38.4,30.12,SE,128,9.0,18.0,61,0.00,,CLR,0.00,VWS V14.01,2013-04-07 15:22:00,
2013-04-07 11:27:00,51.4,38.8,30.12,SE,145,20.0,20.0,62,0.00,,CLR,0.00,VWS V14.01,2013-04-07 15:27:00,
2013-04-07 11:32:00,51.4,38.4,30.12,South,183,18.0,21.0,61,0.00,,CLR,0.00,VWS V14.01,2013-04-07 15:32:00,
2013-04-07 11:37:00,51.5,38.9,30.12,SSE,166,7.0,12.0,62,0.00,,CLR,0.00,VWS V14.01,2013-04-07 15:37:00,
2013-04-07 11:43:00,51.8,38.4,30.11,South,172,13.0,16.0,60,0.00,,CLR,0.00,VWS V14.01,2013-04-07 15:43:00,
2013-04-07 11:48:00,52.0,39.0,30.11,SSE,163,4.0,18.0,61,0.00,,CLR,0.00,VWS V14.01,2013-04-07 15:48:00,
2013-04-07 11:53:00,52.2,38.8,30.10,ESE,113,20.0,21.0,60,0.00,,CLR,0.00,VWS V14.01,2013-04-07 15:53:00,
2013-04-07 11:58:00,52.8,39.3,30.10,South,186,7.0,20.0,60,0.00,,CLR,0.00,VWS V14.01,2013-04-07 15:58:00,
2013-04-07 12:03:00,52.8,39.3,30.10,SE,146,15.0,20.0,60,0.00,,CLR,0.00,VWS V14.01,2013-04-07 16:03:00,
2013-04-07 12:08:00,52.8,39.3,30.09,South,172,9.0,19.0,60,0.00,,CLR,0.00,VWS V14.01,2013-04-07 16:08:00,
2013-04-07 12:13:00,53.2,39.7,30.09,South,191,13.0,21.0,60,0.00,,CLR,0.00,VWS V14.01,2013-04-07 16:13:00,
2013-04-07 12:18:00,53.3,38.9,30.09,South,176,9.0,15.0,58,0.00,,CLR,0.00,VWS V14.01,2013-04-07 16:18:00,
2013-04-07 12:23:00,53.7,40.2,30.09,SE,129,10.0,13.0,60,0.00,,CLR,0.00,VWS V14.01,2013-04-07 16:23:00,
2013-04-07 12:28:00,54.2,40.6,30.09,ESE,122,23.0,23.0,60,0.00,,CLR,0.00,VWS V14.01,2013-04-07 16:28:00,
2013-04-07 12:34:00,54.0,40.0,30.08,SSE,155,5.0,18.0,59,0.00,,CLR,0.00,VWS V14.01,2013-04-07 16:34:00,
2013-04-07 12:39:00,54.3,39.4,30.08,SSE,149,8.0,18.0,57,0.00,,CLR,0.00,VWS V14.01,2013-04-07 16:39:00,
2013-04-07 12:44:00,54.9,41.3,30.08,SE,143,15.0,21.0,60,0.00,,CLR,0.00,VWS V14.01,2013-04-07 16:44:00,
2013-04-07 12:49:00,54.9,40.9,30.08,South,176,11.0,15.0,59,0.00,,CLR,0.00,VWS V14.01,2013-04-07 16:49:00,
2013-04-07 12:54:00,55.2,40.7,30.08,SE,136,7.0,17.0,58,0.00,,CLR,0.00,VWS V14.01,2013-04-07 16:54:00,
2013-04-07 12:59:00,55.4,40.9,30.07,SE,128,14.0,18.0,58,0.00,,CLR,0.00,VWS V14.01,2013-04-07 16:59:00,
2013-04-07 13:04:00,55.2,40.7,30.07,SSE,153,16.0,24.0,58,0.00,,CLR,0.00,VWS V14.01,2013-04-07 17:04:00,
2013-04-07 13:10:00,55.1,40.6,30.07,SSE,148,12.0,14.0,58,0.00,,CLR,0.00,VWS V14.01,2013-04-07 17:10:00,
2013-04-07 13:15:00,55.4,40.4,30.06,SE,132,14.0,16.0,57,0.00,,CLR,0.00,VWS V14.01,2013-04-07 17:15:00,
2013-04-07 13:20:00,55.5,41.9,30.06,South,169,13.0,16.0,60,0.00,,CLR,0.00,VWS V14.01,2013-04-07 17:20:00,
2013-04-07 13:25:00,55.3,40.8,30.06,SSE,155,15.0,16.0,58,0.00,,CLR,0.00,VWS V14.01,2013-04-07 17:25:00,
2013-04-07 13:30:00,55.4,41.8,30.05,SE,136,17.0,22.0,60,0.00,,CLR,0.00,VWS V14.01,2013-04-07 17:30:00,
2013-04-07 13:35:00,55.3,41.7,30.05,SE,127,14.0,17.0,60,0.00,,CLR,0.00,VWS V14.01,2013-04-07 17:35:00,
2013-04-07 13:40:00,55.2,40.7,30.05,SSW,193,6.0,11.0,58,0.00,,CLR,0.00,VWS V14.01,2013-04-07 17:40:00,
2013-04-07 13:45:00,55.3,40.8,30.05,West,260,5.0,6.0,58,0.00,,CLR,0.00,VWS V14.01,2013-04-07 17:45:00,
2013-04-07 13:50:00,56.1,42.0,30.04,ESE,110,15.0,15.0,59,0.00,,CLR,0.00,VWS V14.01,2013-04-07 17:50:00,
2013-04-07 13:55:00,55.8,41.7,30.04,SE,139,12.0,17.0,59,0.00,,CLR,0.00,VWS V14.01,2013-04-07 17:55:00,
2013-04-07 14:00:00,55.6,42.0,30.03,SE,139,18.0,22.0,60,0.00,,CLR,0.00,VWS V14.01,2013-04-07 18:00:00,
2013-04-07 14:05:00,55.5,41.0,30.03,SE,143,9.0,12.0,58,0.00,,CLR,0.00,VWS V14.01,2013-04-07 18:05:00,
2013-04-07 14:10:00,55.4,41.8,30.03,SE,132,19.0,20.0,60,0.00,,CLR,0.00,VWS V14.01,2013-04-07 18:10:00,
2013-04-07 14:16:00,55.9,41.8,30.02,SE,136,14.0,18.0,59,0.00,,CLR,0.00,VWS V14.01,2013-04-07 18:16:00,
2013-04-07 14:21:00,56.5,41.5,30.02,SSE,162,15.0,15.0,57,0.00,,CLR,0.00,VWS V14.01,2013-04-07 18:21:00,
2013-04-07 14:26:00,56.7,41.7,30.02,SSE,149,13.0,24.0,57,0.00,,CLR,0.00,VWS V14.01,2013-04-07 18:26:00,
2013-04-07 14:31:00,57.2,42.1,30.02,SSW,194,4.0,15.0,57,0.00,,CLR,0.00,VWS V14.01,2013-04-07 18:31:00,
2013-04-07 14:36:00,58.0,41.9,30.02,SSE,152,10.0,18.0,55,0.00,,CLR,0.00,VWS V14.01,2013-04-07 18:36:00,
2013-04-07 14:41:00,58.2,42.1,30.02,SSW,204,8.0,13.0,55,0.00,,CLR,0.00,VWS V14.01,2013-04-07 18:41:00,
2013-04-07 14:47:00,58.2,42.6,30.01,South,178,6.0,12.0,56,0.00,,CLR,0.00,VWS V14.01,2013-04-07 18:47:00,
2013-04-07 14:52:00,58.5,42.9,30.00,South,191,6.0,16.0,56,0.00,,CLR,0.00,VWS V14.01,2013-04-07 18:52:00,
2013-04-07 14:57:00,58.8,43.2,30.00,South,184,5.0,19.0,56,0.00,,CLR,0.00,VWS V14.01,2013-04-07 18:57:00,
2013-04-07 15:02:00,59.1,42.0,30.00,SSW,195,5.0,16.0,53,0.00,,CLR,0.00,VWS V14.01,2013-04-07 19:02:00,
2013-04-07 15:07:00,58.8,42.2,30.00,SSE,153,12.0,15.0,54,0.00,,CLR,0.00,VWS V14.01,2013-04-07 19:07:00,
2013-04-07 15:12:00,59.0,42.4,30.00,SW,222,4.0,11.0,54,0.00,,CLR,0.00,VWS V14.01,2013-04-07 19:12:00,
2013-04-07 15:18:00,59.0,42.4,30.00,SE,135,20.0,20.0,54,0.00,,CLR,0.00,VWS V14.01,2013-04-07 19:18:00,
2013-04-07 15:23:00,59.0,41.9,29.99,SE,134,18.0,18.0,53,0.00,,CLR,0.00,VWS V14.01,2013-04-07 19:23:00,
2013-04-07 15:28:00,58.9,42.8,29.99,SE,136,12.0,20.0,55,0.00,,CLR,0.00,VWS V14.01,2013-04-07 19:28:00,
2013-04-07 15:33:00,58.9,42.3,29.99,SE,131,19.0,23.0,54,0.00,,CLR,0.00,VWS V14.01,2013-04-07 19:33:00,
2013-04-07 15:38:00,59.2,43.1,29.98,SE,134,13.0,20.0,55,0.00,,CLR,0.00,VWS V14.01,2013-04-07 19:38:00,
2013-04-07 15:44:00,59.3,43.2,29.98,SE,131,16.0,20.0,55,0.00,,CLR,0.00,VWS V14.01,2013-04-07 19:44:00,
2013-04-07 15:49:00,59.1,42.5,29.98,South,171,15.0,25.0,54,0.00,,CLR,0.00,VWS V14.01,2013-04-07 19:49:00,
2013-04-07 15:54:00,59.0,42.4,29.97,SSE,152,16.0,19.0,54,0.00,,CLR,0.00,VWS V14.01,2013-04-07 19:54:00,
2013-04-07 15:59:00,58.7,42.1,29.97,SE,145,13.0,23.0,54,0.00,,CLR,0.00,VWS V14.01,2013-04-07 19:59:00,
2013-04-07 16:05:00,58.7,42.1,29.97,SE,143,13.0,14.0,54,0.00,,CLR,0.00,VWS V14.01,2013-04-07 20:05:00,
2013-04-07 16:10:00,58.7,42.1,29.98,SSE,162,12.0,17.0,54,0.00,,CLR,0.00,VWS V14.01,2013-04-07 20:10:00,
2013-04-07 16:15:00,59.1,42.5,29.97,SSE,158,7.0,12.0,54,0.00,,CLR,0.00,VWS V14.01,2013-04-07 20:15:00,
2013-04-07 16:20:00,59.7,42.6,29.97,SSE,153,9.0,18.0,53,0.00,,CLR,0.00,VWS V14.01,2013-04-07 20:20:00,
2013-04-07 16:25:00,59.4,42.8,29.97,SSE,160,16.0,20.0,54,0.00,,CLR,0.00,VWS V14.01,2013-04-07 20:25:00,
2013-04-07 16:30:00,59.9,43.2,29.96,South,169,9.0,18.0,54,0.00,,CLR,0.00,VWS V14.01,2013-04-07 20:30:00,
2013-04-07 16:35:00,60.1,42.9,29.96,SSE,148,12.0,20.0,53,0.00,,CLR,0.00,VWS V14.01,2013-04-07 20:35:00,
2013-04-07 16:40:00,60.1,42.9,29.95,SE,137,16.0,19.0,53,0.00,,CLR,0.00,VWS V14.01,2013-04-07 20:40:00,
2013-04-07 16:45:00,59.9,43.7,29.95,SE,125,17.0,17.0,55,0.00,,CLR,0.00,VWS V14.01,2013-04-07 20:45:00,
2013-04-07 16:50:00,60.4,43.7,29.95,SSE,147,8.0,8.0,54,0.00,,CLR,0.00,VWS V14.01,2013-04-07 20:50:00,
2013-04-07 16:55:00,60.6,43.4,29.95,SE,131,13.0,19.0,53,0.00,,CLR,0.00,VWS V14.01,2013-04-07 20:55:00,
2013-04-07 17:00:00,60.3,43.6,29.95,SE,145,16.0,19.0,54,0.00,,CLR,0.00,VWS V14.01,2013-04-07 21:00:00,
2013-04-07 17:06:00,60.5,43.3,29.95,SSE,152,8.0,14.0,53,0.00,,CLR,0.00,VWS V14.01,2013-04-07 21:06:00,
2013-04-07 17:11:00,60.8,43.1,29.95,SSE,158,4.0,9.0,52,0.00,,CLR,0.00,VWS V14.01,2013-04-07 21:11:00,
2013-04-07 17:16:00,60.8,43.6,29.95,SE,136,18.0,18.0,53,0.00,,CLR,0.00,VWS V14.01,2013-04-07 21:16:00,
2013-04-07 17:21:00,60.7,43.5,29.95,SE,142,6.0,12.0,53,0.00,,CLR,0.00,VWS V14.01,2013-04-07 21:21:00,
2013-04-07 17:26:00,60.9,43.7,29.95,SE,138,11.0,16.0,53,0.00,,CLR,0.00,VWS V14.01,2013-04-07 21:26:00,
2013-04-07 17:31:00,60.7,43.0,29.95,South,186,7.0,10.0,52,0.00,,CLR,0.00,VWS V14.01,2013-04-07 21:31:00,
2013-04-07 17:37:00,60.4,42.7,29.95,SE,146,12.0,18.0,52,0.00,,CLR,0.00,VWS V14.01,2013-04-07 21:37:00,
2013-04-07 17:42:00,60.4,43.2,29.95,SE,145,12.0,14.0,53,0.00,,CLR,0.00,VWS V14.01,2013-04-07 21:42:00,
2013-04-07 17:47:00,60.6,43.4,29.95,South,181,5.0,11.0,53,0.00,,CLR,0.00,VWS V14.01,2013-04-07 21:47:00,
2013-04-07 17:52:00,60.8,43.1,29.96,SSE,158,12.0,16.0,52,0.00,,CLR,0.00,VWS V14.01,2013-04-07 21:52:00,
2013-04-07 17:57:00,60.7,43.5,29.95,SSE,153,11.0,12.0,53,0.00,,CLR,0.00,VWS V14.01,2013-04-07 21:57:00,
2013-04-07 18:02:00,60.7,43.0,29.95,ESE,121,12.0,16.0,52,0.00,,CLR,0.00,VWS V14.01,2013-04-07 22:02:00,
2013-04-07 18:07:00,60.5,43.3,29.96,SE,139,16.0,17.0,53,0.00,,CLR,0.00,VWS V14.01,2013-04-07 22:07:00,
2013-04-07 18:12:00,60.4,43.2,29.95,SSE,148,9.0,12.0,53,0.00,,CLR,0.00,VWS V14.01,2013-04-07 22:12:00,
2013-04-07 18:17:00,60.5,43.3,29.96,SSW,200,3.0,12.0,53,0.00,,CLR,0.00,VWS V14.01,2013-04-07 22:17:00,
2013-04-07 18:22:00,60.7,43.5,29.96,SSE,150,6.0,9.0,53,0.00,,CLR,0.00,VWS V14.01,2013-04-07 22:22:00,
2013-04-07 18:27:00,60.6,43.9,29.96,SSE,160,8.0,13.0,54,0.00,,CLR,0.00,VWS V14.01,2013-04-07 22:27:00,
2013-04-07 18:32:00,60.4,43.7,29.96,SE,137,10.0,13.0,54,0.00,,CLR,0.00,VWS V14.01,2013-04-07 22:32:00,
2013-04-07 18:37:00,60.2,43.5,29.96,SE,131,10.0,14.0,54,0.00,,CLR,0.00,VWS V14.01,2013-04-07 22:37:00,
2013-04-07 18:42:00,59.9,43.7,29.96,SSE,156,13.0,14.0,55,0.00,,CLR,0.00,VWS V14.01,2013-04-07 22:42:00,
2013-04-07 18:48:00,59.4,43.2,29.96,SSE,160,7.0,13.0,55,0.00,,CLR,0.00,VWS V14.01,2013-04-07 22:48:00,
2013-04-07 18:53:00,59.2,43.5,29.97,SSE,149,7.0,13.0,56,0.00,,CLR,0.00,VWS V14.01,2013-04-07 22:53:00,
2013-04-07 18:58:00,58.9,43.2,29.97,SE,134,5.0,13.0,56,0.00,,CLR,0.00,VWS V14.01,2013-04-07 22:58:00,
2013-04-07 19:03:00,58.6,43.4,29.96,SSE,155,8.0,12.0,57,0.00,,CLR,0.00,VWS V14.01,2013-04-07 23:03:00,
2013-04-07 19:08:00,58.6,43.4,29.97,SSE,161,4.0,11.0,57,0.00,,CLR,0.00,VWS V14.01,2013-04-07 23:08:00,
2013-04-07 19:14:00,58.5,43.3,29.96,SE,132,9.0,10.0,57,0.00,,CLR,0.00,VWS V14.01,2013-04-07 23:14:00,
2013-04-07 19:19:00,58.5,43.3,29.96,SE,142,7.0,11.0,57,0.00,,CLR,0.00,VWS V14.01,2013-04-07 23:19:00,
2013-04-07 19:24:00,58.6,43.4,29.96,SSE,148,9.0,14.0,57,0.00,,CLR,0.00,VWS V14.01,2013-04-07 23:24:00,
2013-04-07 19:29:00,58.4,43.2,29.97,SSE,156,9.0,11.0,57,0.00,,CLR,0.00,VWS V14.01,2013-04-07 23:29:00,
2013-04-07 19:34:00,58.3,43.2,29.96,SSE,163,7.0,10.0,57,0.00,,CLR,0.00,VWS V14.01,2013-04-07 23:34:00,
2013-04-07 19:39:00,58.1,43.0,29.96,SSE,167,7.0,11.0,57,0.00,,CLR,0.00,VWS V14.01,2013-04-07 23:39:00,
2013-04-07 19:44:00,58.0,43.3,29.96,SSE,152,7.0,9.0,58,0.00,,CLR,0.00,VWS V14.01,2013-04-07 23:44:00,
2013-04-07 19:49:00,57.6,43.4,29.97,SE,142,5.0,10.0,59,0.00,,CLR,0.00,VWS V14.01,2013-04-07 23:49:00,
2013-04-07 19:54:00,57.4,43.2,29.96,SE,131,7.0,11.0,59,0.00,,CLR,0.00,VWS V14.01,2013-04-07 23:54:00,
2013-04-07 19:59:00,57.2,43.5,29.96,ESE,116,6.0,11.0,60,0.00,,CLR,0.00,VWS V14.01,2013-04-07 23:59:00,
2013-04-07 20:04:00,57.0,43.3,29.96,SE,145,9.0,10.0,60,0.00,,CLR,0.00,VWS V14.01,2013-04-08 00:04:00,
2013-04-07 20:10:00,56.7,43.4,29.96,SSE,148,2.0,7.0,61,0.00,,CLR,0.00,VWS V14.01,2013-04-08 00:10:00,
2013-04-07 20:15:00,56.3,43.5,29.96,ESE,116,6.0,7.0,62,0.00,,CLR,0.00,VWS V14.01,2013-04-08 00:15:00,
2013-04-07 20:20:00,56.3,43.5,29.97,SSE,154,2.0,11.0,62,0.00,,CLR,0.00,VWS V14.01,2013-04-08 00:20:00,
2013-04-07 20:25:00,56.2,43.4,29.97,SE,145,9.0,10.0,62,0.00,,CLR,0.00,VWS V14.01,2013-04-08 00:25:00,
2013-04-07 20:30:00,56.4,43.6,29.97,South,178,5.0,10.0,62,0.00,,OVC110,0.00,VWS V14.01,2013-04-08 00:30:00,
2013-04-07 20:35:00,56.5,43.7,29.97,SE,145,5.0,11.0,62,0.00,,OVC110,0.00,VWS V14.01,2013-04-08 00:35:00,
2013-04-07 20:40:00,56.5,44.1,29.97,SSE,155,6.0,9.0,63,0.00,,OVC110,0.00,VWS V14.01,2013-04-08 00:40:00,
2013-04-07 20:45:00,56.5,44.1,29.97,SSE,168,9.0,13.0,63,0.00,,OVC110,0.00,VWS V14.01,2013-04-08 00:45:00,
2013-04-07 20:50:00,56.7,43.8,29.97,SSE,162,7.0,12.0,62,0.00,,OVC110,0.00,VWS V14.01,2013-04-08 00:50:00,
2013-04-07 20:55:00,56.6,43.8,29.98,SSE,153,7.0,10.0,62,0.00,,OVC110,0.00,VWS V14.01,2013-04-08 00:55:00,
2013-04-07 21:00:00,56.6,44.2,29.98,SSE,148,6.0,9.0,63,0.00,,OVC110,0.00,VWS V14.01,2013-04-08 01:00:00,
2013-04-07 21:05:00,56.5,44.1,29.98,SSE,166,6.0,10.0,63,0.00,,OVC110,0.00,VWS V14.01,2013-04-08 01:05:00,
2013-04-07 21:10:00,56.4,44.0,29.98,SE,145,6.0,10.0,63,0.00,,OVC110,0.00,VWS V14.01,2013-04-08 01:10:00,
2013-04-07 21:15:00,56.4,44.4,29.98,SE,142,9.0,11.0,64,0.00,,OVC110,0.00,VWS V14.01,2013-04-08 01:15:00,
2013-04-07 21:20:00,56.3,44.3,29.98,SE,145,8.0,12.0,64,0.00,,OVC110,0.00,VWS V14.01,2013-04-08 01:20:00,
2013-04-07 21:25:00,56.3,44.3,29.98,SE,145,9.0,12.0,64,0.00,,OVC110,0.00,VWS V14.01,2013-04-08 01:25:00,
2013-04-07 21:30:00,56.3,44.3,29.98,SSE,166,10.0,12.0,64,0.00,,BKN100,0.00,VWS V14.01,2013-04-08 01:30:00,
2013-04-07 21:35:00,56.3,44.7,29.97,SE,138,7.0,12.0,65,0.00,,BKN100,0.00,VWS V14.01,2013-04-08 01:35:00,
2013-04-07 21:40:00,56.3,44.7,29.97,SSE,152,11.0,16.0,65,0.00,,BKN100,0.00,VWS V14.01,2013-04-08 01:40:00,
2013-04-07 21:45:00,56.3,44.7,29.98,SSE,150,11.0,14.0,65,0.00,,BKN100,0.00,VWS V14.01,2013-04-08 01:45:00,
2013-04-07 21:50:00,56.2,44.6,29.98,SE,139,9.0,14.0,65,0.00,,BKN100,0.00,VWS V14.01,2013-04-08 01:50:00,
2013-04-07 21:55:00,56.1,44.9,29.98,SSE,148,5.0,12.0,66,0.00,,BKN100,0.00,VWS V14.01,2013-04-08 01:55:00,
2013-04-07 22:00:00,55.9,44.7,29.98,SE,124,1.0,9.0,66,0.00,,BKN110,0.00,VWS V14.01,2013-04-08 02:00:00,
2013-04-07 22:05:00,55.8,45.0,29.98,SSW,193,7.0,10.0,67,0.00,,BKN110,0.00,VWS V14.01,2013-04-08 02:05:00,
2013-04-07 22:10:00,55.9,45.1,29.98,SSE,150,8.0,8.0,67,0.00,,BKN110,0.00,VWS V14.01,2013-04-08 02:10:00,
2013-04-07 22:15:00,55.9,45.1,29.98,South,169,9.0,10.0,67,0.00,,BKN110,0.00,VWS V14.01,2013-04-08 02:15:00,
2013-04-07 22:20:00,55.9,45.1,29.97,SSE,153,6.0,9.0,67,0.00,,BKN110,0.00,VWS V14.01,2013-04-08 02:20:00,
2013-04-07 22:26:00,56.0,45.2,29.97,SSE,149,12.0,12.0,67,0.00,,BKN110,0.00,VWS V14.01,2013-04-08 02:26:00,
2013-04-07 22:31:00,56.0,45.2,29.97,SE,139,7.0,12.0,67,0.00,,BKN110,0.00,VWS V14.01,2013-04-08 02:31:00,
2013-04-07 22:36:00,56.1,45.3,29.97,SSE,160,11.0,13.0,67,0.00,,BKN110,0.00,VWS V14.01,2013-04-08 02:36:00,
2013-04-07 22:41:00,56.0,45.2,29.97,SSE,158,9.0,10.0,67,0.00,,BKN110,0.00,VWS V14.01,2013-04-08 02:41:00,
2013-04-07 22:46:00,56.1,45.3,29.97,SSE,160,9.0,13.0,67,0.00,,BKN110,0.00,VWS V14.01,2013-04-08 02:46:00,
2013-04-07 22:51:00,56.0,45.2,29.97,SSE,149,9.0,10.0,67,0.00,,BKN110,0.00,VWS V14.01,2013-04-08 02:51:00,
2013-04-07 22:57:00,55.9,45.1,29.97,SSE,149,9.0,11.0,67,0.00,,BKN110,0.00,VWS V14.01,2013-04-08 02:57:00,
2013-04-07 23:02:00,55.8,45.0,29.97,SSE,162,11.0,12.0,67,0.00,,BKN120,0.00,VWS V14.01,2013-04-08 03:02:00,
2013-04-07 23:07:00,55.8,45.0,29.97,SSE,147,10.0,14.0,67,0.00,,BKN120,0.00,VWS V14.01,2013-04-08 03:07:00,
2013-04-07 23:12:00,55.8,45.0,29.97,SSE,150,15.0,15.0,67,0.00,,BKN120,0.00,VWS V14.01,2013-04-08 03:12:00,
2013-04-07 23:17:00,55.8,45.0,29.97,SSE,155,11.0,13.0,67,0.00,,BKN120,0.00,VWS V14.01,2013-04-08 03:17:00,
2013-04-07 23:22:00,55.8,45.0,29.96,SSE,159,9.0,11.0,67,0.00,,BKN120,0.00,VWS V14.01,2013-04-08 03:22:00,
2013-04-07 23:27:00,55.7,45.3,29.96,SSE,158,9.0,12.0,68,0.00,,BKN120,0.00,VWS V14.01,2013-04-08 03:27:00,
2013-04-07 23:32:00,55.6,45.2,29.96,SSE,155,8.0,11.0,68,0.00,,BKN120,0.00,VWS V14.01,2013-04-08 03:32:00,
2013-04-07 23:37:00,55.6,45.2,29.96,South,169,10.0,12.0,68,0.00,,BKN120,0.00,VWS V14.01,2013-04-08 03:37:00,
2013-04-07 23:43:00,55.4,45.0,29.96,SSE,152,6.0,10.0,68,0.00,,BKN120,0.00,VWS V14.01,2013-04-08 03:43:00,
2013-04-07 23:48:00,55.2,45.2,29.96,SSE,150,6.0,10.0,69,0.00,,BKN120,0.00,VWS V14.01,2013-04-08 03:48:00,
2013-04-07 23:53:00,55.0,45.0,29.96,SE,131,5.0,10.0,69,0.00,,BKN120,0.00,VWS V14.01,2013-04-08 03:53:00,
2013-04-07 23:58:00,54.7,45.1,29.96,SE,128,10.0,12.0,70,0.00,,BKN120,0.00,VWS V14.01,2013-04-08 03:58:00,